sensor_id;sensor_type;location;lat;lon;timestamp;pressure;altitude;pressure_sealevel;temperature
41940;BMP180;23057;48.554;14.454;2024-01-10T00:02:16;94395.00;;;-3.40
41940;BMP180;23057;48.554;14.454;2024-01-10T00:04:46;94401.00;;;-3.40
41940;BMP180;23057;48.554;14.454;2024-01-10T00:07:17;94382.00;;;-3.30
41940;BMP180;23057;48.554;14.454;2024-01-10T00:09:48;94395.00;;;-3.30
41940;BMP180;23057;48.554;14.454;2024-01-10T00:12:19;94402.00;;;-3.30
41940;BMP180;23057;48.554;14.454;2024-01-10T00:14:50;94394.00;;;-3.30
41940;BMP180;23057;48.554;14.454;2024-01-10T00:17:21;94390.00;;;-3.30
41940;BMP180;23057;48.554;14.454;2024-01-10T00:19:51;94382.00;;;-3.30
41940;BMP180;23057;48.554;14.454;2024-01-10T00:22:22;94385.00;;;-3.30
41940;BMP180;23057;48.554;14.454;2024-01-10T00:24:53;94385.00;;;-3.40
41940;BMP180;23057;48.554;14.454;2024-01-10T00:27:24;94390.00;;;-3.50
41940;BMP180;23057;48.554;14.454;2024-01-10T00:29:55;94381.00;;;-3.50
41940;BMP180;23057;48.554;14.454;2024-01-10T00:32:27;94398.00;;;-3.50
41940;BMP180;23057;48.554;14.454;2024-01-10T00:34:58;94382.00;;;-3.60
41940;BMP180;23057;48.554;14.454;2024-01-10T00:37:29;94380.00;;;-3.60
41940;BMP180;23057;48.554;14.454;2024-01-10T00:39:59;94381.00;;;-3.60
41940;BMP180;23057;48.554;14.454;2024-01-10T00:42:30;94385.00;;;-3.60
41940;BMP180;23057;48.554;14.454;2024-01-10T00:45:01;94373.00;;;-3.70
41940;BMP180;23057;48.554;14.454;2024-01-10T00:47:32;94385.00;;;-3.60
41940;BMP180;23057;48.554;14.454;2024-01-10T00:50:03;94376.00;;;-3.60
41940;BMP180;23057;48.554;14.454;2024-01-10T00:52:34;94379.00;;;-3.60
41940;BMP180;23057;48.554;14.454;2024-01-10T00:55:06;94377.00;;;-3.60
41940;BMP180;23057;48.554;14.454;2024-01-10T00:57:37;94386.00;;;-3.60
41940;BMP180;23057;48.554;14.454;2024-01-10T01:00:11;94391.00;;;-3.60
41940;BMP180;23057;48.554;14.454;2024-01-10T01:02:43;94387.00;;;-3.60
41940;BMP180;23057;48.554;14.454;2024-01-10T01:05:14;94382.00;;;-3.60
41940;BMP180;23057;48.554;14.454;2024-01-10T01:07:45;94384.00;;;-3.50
41940;BMP180;23057;48.554;14.454;2024-01-10T01:10:16;94389.00;;;-3.50
41940;BMP180;23057;48.554;14.454;2024-01-10T01:12:46;94376.00;;;-3.40
41940;BMP180;23057;48.554;14.454;2024-01-10T01:15:17;94397.00;;;-3.40
41940;BMP180;23057;48.554;14.454;2024-01-10T01:17:48;94376.00;;;-3.30
41940;BMP180;23057;48.554;14.454;2024-01-10T01:20:19;94390.00;;;-3.40
41940;BMP180;23057;48.554;14.454;2024-01-10T01:22:50;94381.00;;;-3.30
41940;BMP180;23057;48.554;14.454;2024-01-10T01:25:20;94386.00;;;-3.30
41940;BMP180;23057;48.554;14.454;2024-01-10T01:27:51;94380.00;;;-3.30
41940;BMP180;23057;48.554;14.454;2024-01-10T01:30:22;94387.00;;;-3.30
41940;BMP180;23057;48.554;14.454;2024-01-10T01:32:53;94365.00;;;-3.30
41940;BMP180;23057;48.554;14.454;2024-01-10T01:35:24;94384.00;;;-3.30
41940;BMP180;23057;48.554;14.454;2024-01-10T01:37:54;94375.00;;;-3.30
41940;BMP180;23057;48.554;14.454;2024-01-10T01:40:25;94376.00;;;-3.30
41940;BMP180;23057;48.554;14.454;2024-01-10T01:42:56;94373.00;;;-3.40
41940;BMP180;23057;48.554;14.454;2024-01-10T01:45:27;94390.00;;;-3.40
41940;BMP180;23057;48.554;14.454;2024-01-10T01:47:58;94378.00;;;-3.30
41940;BMP180;23057;48.554;14.454;2024-01-10T01:50:29;94375.00;;;-3.30
41940;BMP180;23057;48.554;14.454;2024-01-10T01:53:00;94385.00;;;-3.30
41940;BMP180;23057;48.554;14.454;2024-01-10T01:55:31;94374.00;;;-3.40
41940;BMP180;23057;48.554;14.454;2024-01-10T01:58:02;94373.00;;;-3.40
41940;BMP180;23057;48.554;14.454;2024-01-10T02:00:34;94355.00;;;-3.30
41940;BMP180;23057;48.554;14.454;2024-01-10T02:03:09;94377.00;;;-3.30
41940;BMP180;23057;48.554;14.454;2024-01-10T02:05:41;94364.00;;;-3.30
41940;BMP180;23057;48.554;14.454;2024-01-10T02:08:12;94378.00;;;-3.30
41940;BMP180;23057;48.554;14.454;2024-01-10T02:10:42;94379.00;;;-3.30
41940;BMP180;23057;48.554;14.454;2024-01-10T02:13:14;94362.00;;;-3.30
41940;BMP180;23057;48.554;14.454;2024-01-10T02:15:47;94369.00;;;-3.30
41940;BMP180;23057;48.554;14.454;2024-01-10T02:18:18;94367.00;;;-3.30
41940;BMP180;23057;48.554;14.454;2024-01-10T02:20:50;94364.00;;;-3.30
41940;BMP180;23057;48.554;14.454;2024-01-10T02:23:22;94372.00;;;-3.30
41940;BMP180;23057;48.554;14.454;2024-01-10T02:25:53;94359.00;;;-3.30
41940;BMP180;23057;48.554;14.454;2024-01-10T02:28:24;94373.00;;;-3.30
41940;BMP180;23057;48.554;14.454;2024-01-10T02:30:55;94371.00;;;-3.30
41940;BMP180;23057;48.554;14.454;2024-01-10T02:33:27;94365.00;;;-3.20
41940;BMP180;23057;48.554;14.454;2024-01-10T02:35:58;94366.00;;;-3.20
41940;BMP180;23057;48.554;14.454;2024-01-10T02:38:29;94355.00;;;-3.20
41940;BMP180;23057;48.554;14.454;2024-01-10T02:41:00;94358.00;;;-3.30
41940;BMP180;23057;48.554;14.454;2024-01-10T02:43:32;94358.00;;;-3.30
41940;BMP180;23057;48.554;14.454;2024-01-10T02:46:03;94357.00;;;-3.30
41940;BMP180;23057;48.554;14.454;2024-01-10T02:48:34;94354.00;;;-3.30
41940;BMP180;23057;48.554;14.454;2024-01-10T02:51:05;94355.00;;;-3.30
41940;BMP180;23057;48.554;14.454;2024-01-10T02:53:36;94352.00;;;-3.30
41940;BMP180;23057;48.554;14.454;2024-01-10T02:56:07;94355.00;;;-3.30
41940;BMP180;23057;48.554;14.454;2024-01-10T02:58:37;94360.00;;;-3.30
41940;BMP180;23057;48.554;14.454;2024-01-10T03:01:08;94340.00;;;-3.30
41940;BMP180;23057;48.554;14.454;2024-01-10T03:03:39;94345.00;;;-3.40
41940;BMP180;23057;48.554;14.454;2024-01-10T03:06:10;94341.00;;;-3.40
41940;BMP180;23057;48.554;14.454;2024-01-10T03:08:41;94333.00;;;-3.40
41940;BMP180;23057;48.554;14.454;2024-01-10T03:11:12;94322.00;;;-3.50
41940;BMP180;23057;48.554;14.454;2024-01-10T03:13:47;94330.00;;;-3.50
41940;BMP180;23057;48.554;14.454;2024-01-10T03:16:18;94343.00;;;-3.60
41940;BMP180;23057;48.554;14.454;2024-01-10T03:18:49;94338.00;;;-3.60
41940;BMP180;23057;48.554;14.454;2024-01-10T03:21:20;94334.00;;;-3.60
41940;BMP180;23057;48.554;14.454;2024-01-10T03:24:00;94340.00;;;-3.60
41940;BMP180;23057;48.554;14.454;2024-01-10T03:26:31;94332.00;;;-3.60
41940;BMP180;23057;48.554;14.454;2024-01-10T03:29:02;94339.00;;;-3.60
41940;BMP180;23057;48.554;14.454;2024-01-10T03:31:33;94332.00;;;-3.70
41940;BMP180;23057;48.554;14.454;2024-01-10T03:34:04;94350.00;;;-3.70
41940;BMP180;23057;48.554;14.454;2024-01-10T03:36:35;94347.00;;;-3.70
41940;BMP180;23057;48.554;14.454;2024-01-10T03:39:06;94341.00;;;-3.70
41940;BMP180;23057;48.554;14.454;2024-01-10T03:41:36;94332.00;;;-3.80
41940;BMP180;23057;48.554;14.454;2024-01-10T03:44:07;94333.00;;;-3.80
41940;BMP180;23057;48.554;14.454;2024-01-10T03:46:38;94343.00;;;-3.80
41940;BMP180;23057;48.554;14.454;2024-01-10T03:49:09;94340.00;;;-3.90
41940;BMP180;23057;48.554;14.454;2024-01-10T03:51:40;94348.00;;;-3.90
41940;BMP180;23057;48.554;14.454;2024-01-10T03:54:11;94341.00;;;-3.90
41940;BMP180;23057;48.554;14.454;2024-01-10T03:56:41;94343.00;;;-3.90
41940;BMP180;23057;48.554;14.454;2024-01-10T03:59:12;94342.00;;;-4.00
41940;BMP180;23057;48.554;14.454;2024-01-10T04:01:43;94340.00;;;-4.00
41940;BMP180;23057;48.554;14.454;2024-01-10T04:04:14;94333.00;;;-4.10
41940;BMP180;23057;48.554;14.454;2024-01-10T04:06:45;94340.00;;;-4.10
41940;BMP180;23057;48.554;14.454;2024-01-10T04:09:16;94342.00;;;-4.00
41940;BMP180;23057;48.554;14.454;2024-01-10T04:11:47;94338.00;;;-4.00
41940;BMP180;23057;48.554;14.454;2024-01-10T04:14:18;94338.00;;;-4.00
41940;BMP180;23057;48.554;14.454;2024-01-10T04:16:49;94348.00;;;-3.90
41940;BMP180;23057;48.554;14.454;2024-01-10T04:19:19;94340.00;;;-3.90
41940;BMP180;23057;48.554;14.454;2024-01-10T04:21:51;94334.00;;;-3.90
41940;BMP180;23057;48.554;14.454;2024-01-10T04:24:22;94344.00;;;-3.80
41940;BMP180;23057;48.554;14.454;2024-01-10T04:26:52;94350.00;;;-3.80
41940;BMP180;23057;48.554;14.454;2024-01-10T04:29:23;94345.00;;;-3.80
41940;BMP180;23057;48.554;14.454;2024-01-10T04:31:54;94353.00;;;-3.70
41940;BMP180;23057;48.554;14.454;2024-01-10T04:34:25;94349.00;;;-3.70
41940;BMP180;23057;48.554;14.454;2024-01-10T04:36:56;94337.00;;;-3.70
41940;BMP180;23057;48.554;14.454;2024-01-10T04:39:27;94339.00;;;-3.70
41940;BMP180;23057;48.554;14.454;2024-01-10T04:41:58;94351.00;;;-3.80
41940;BMP180;23057;48.554;14.454;2024-01-10T04:44:29;94348.00;;;-3.80
41940;BMP180;23057;48.554;14.454;2024-01-10T04:46:59;94343.00;;;-3.80
41940;BMP180;23057;48.554;14.454;2024-01-10T04:49:30;94351.00;;;-3.80
41940;BMP180;23057;48.554;14.454;2024-01-10T04:52:01;94347.00;;;-3.70
41940;BMP180;23057;48.554;14.454;2024-01-10T04:54:32;94343.00;;;-3.70
41940;BMP180;23057;48.554;14.454;2024-01-10T04:57:04;94337.00;;;-3.70
41940;BMP180;23057;48.554;14.454;2024-01-10T04:59:35;94347.00;;;-3.60
41940;BMP180;23057;48.554;14.454;2024-01-10T05:02:06;94356.00;;;-3.70
41940;BMP180;23057;48.554;14.454;2024-01-10T05:04:37;94356.00;;;-3.60
41940;BMP180;23057;48.554;14.454;2024-01-10T05:07:08;94366.00;;;-3.60
41940;BMP180;23057;48.554;14.454;2024-01-10T05:09:38;94349.00;;;-3.60
41940;BMP180;23057;48.554;14.454;2024-01-10T05:12:09;94355.00;;;-3.70
41940;BMP180;23057;48.554;14.454;2024-01-10T05:14:40;94359.00;;;-3.70
41940;BMP180;23057;48.554;14.454;2024-01-10T05:17:11;94363.00;;;-3.70
41940;BMP180;23057;48.554;14.454;2024-01-10T05:19:42;94363.00;;;-3.60
41940;BMP180;23057;48.554;14.454;2024-01-10T05:22:13;94354.00;;;-3.60
41940;BMP180;23057;48.554;14.454;2024-01-10T05:24:44;94360.00;;;-3.60
41940;BMP180;23057;48.554;14.454;2024-01-10T05:27:15;94357.00;;;-3.60
41940;BMP180;23057;48.554;14.454;2024-01-10T05:29:46;94362.00;;;-3.70
41940;BMP180;23057;48.554;14.454;2024-01-10T05:32:17;94358.00;;;-3.60
41940;BMP180;23057;48.554;14.454;2024-01-10T05:34:48;94359.00;;;-3.70
41940;BMP180;23057;48.554;14.454;2024-01-10T05:37:20;94362.00;;;-3.70
41940;BMP180;23057;48.554;14.454;2024-01-10T05:39:52;94366.00;;;-3.70
41940;BMP180;23057;48.554;14.454;2024-01-10T05:42:23;94376.00;;;-3.60
41940;BMP180;23057;48.554;14.454;2024-01-10T05:44:54;94376.00;;;-3.60
41940;BMP180;23057;48.554;14.454;2024-01-10T05:47:25;94400.00;;;-3.60
41940;BMP180;23057;48.554;14.454;2024-01-10T05:49:56;94369.00;;;-3.60
41940;BMP180;23057;48.554;14.454;2024-01-10T05:52:27;94381.00;;;-3.70
41940;BMP180;23057;48.554;14.454;2024-01-10T05:54:58;94383.00;;;-3.70
41940;BMP180;23057;48.554;14.454;2024-01-10T05:57:29;94379.00;;;-3.60
41940;BMP180;23057;48.554;14.454;2024-01-10T06:00:00;94371.00;;;-3.70
41940;BMP180;23057;48.554;14.454;2024-01-10T06:02:31;94372.00;;;-3.60
41940;BMP180;23057;48.554;14.454;2024-01-10T06:05:02;94375.00;;;-3.70
41940;BMP180;23057;48.554;14.454;2024-01-10T06:07:39;94372.00;;;-3.70
41940;BMP180;23057;48.554;14.454;2024-01-10T06:10:13;94378.00;;;-3.70
41940;BMP180;23057;48.554;14.454;2024-01-10T06:12:44;94372.00;;;-3.70
41940;BMP180;23057;48.554;14.454;2024-01-10T06:15:15;94373.00;;;-3.70
41940;BMP180;23057;48.554;14.454;2024-01-10T06:17:46;94388.00;;;-3.70
41940;BMP180;23057;48.554;14.454;2024-01-10T06:20:17;94387.00;;;-3.70
41940;BMP180;23057;48.554;14.454;2024-01-10T06:22:48;94396.00;;;-3.70
41940;BMP180;23057;48.554;14.454;2024-01-10T06:25:20;94385.00;;;-3.70
41940;BMP180;23057;48.554;14.454;2024-01-10T06:27:51;94396.00;;;-3.70
41940;BMP180;23057;48.554;14.454;2024-01-10T06:30:22;94391.00;;;-3.70
41940;BMP180;23057;48.554;14.454;2024-01-10T06:32:52;94392.00;;;-3.60
41940;BMP180;23057;48.554;14.454;2024-01-10T06:35:23;94387.00;;;-3.70
41940;BMP180;23057;48.554;14.454;2024-01-10T06:37:54;94385.00;;;-3.70
41940;BMP180;23057;48.554;14.454;2024-01-10T06:40:25;94385.00;;;-3.70
41940;BMP180;23057;48.554;14.454;2024-01-10T06:42:56;94381.00;;;-3.80
41940;BMP180;23057;48.554;14.454;2024-01-10T06:45:27;94389.00;;;-3.80
41940;BMP180;23057;48.554;14.454;2024-01-10T06:47:58;94404.00;;;-3.80
41940;BMP180;23057;48.554;14.454;2024-01-10T06:50:28;94403.00;;;-3.80
41940;BMP180;23057;48.554;14.454;2024-01-10T06:53:01;94397.00;;;-3.80
41940;BMP180;23057;48.554;14.454;2024-01-10T06:55:31;94403.00;;;-3.80
41940;BMP180;23057;48.554;14.454;2024-01-10T06:58:02;94408.00;;;-3.80
41940;BMP180;23057;48.554;14.454;2024-01-10T07:00:33;94411.00;;;-3.70
41940;BMP180;23057;48.554;14.454;2024-01-10T07:03:05;94409.00;;;-3.70
41940;BMP180;23057;48.554;14.454;2024-01-10T07:05:36;94400.00;;;-3.70
41940;BMP180;23057;48.554;14.454;2024-01-10T07:08:06;94408.00;;;-3.70
41940;BMP180;23057;48.554;14.454;2024-01-10T07:10:37;94405.00;;;-3.70
41940;BMP180;23057;48.554;14.454;2024-01-10T07:13:08;94419.00;;;-3.60
41940;BMP180;23057;48.554;14.454;2024-01-10T07:15:40;94415.00;;;-3.60
41940;BMP180;23057;48.554;14.454;2024-01-10T07:18:10;94423.00;;;-3.60
41940;BMP180;23057;48.554;14.454;2024-01-10T07:20:41;94418.00;;;-3.50
41940;BMP180;23057;48.554;14.454;2024-01-10T07:23:12;94421.00;;;-3.50
41940;BMP180;23057;48.554;14.454;2024-01-10T07:25:43;94424.00;;;-3.40
41940;BMP180;23057;48.554;14.454;2024-01-10T07:28:14;94441.00;;;-3.40
41940;BMP180;23057;48.554;14.454;2024-01-10T07:30:45;94426.00;;;-3.30
41940;BMP180;23057;48.554;14.454;2024-01-10T07:33:17;94423.00;;;-3.30
41940;BMP180;23057;48.554;14.454;2024-01-10T07:35:48;94439.00;;;-3.20
41940;BMP180;23057;48.554;14.454;2024-01-10T07:38:19;94439.00;;;-3.10
41940;BMP180;23057;48.554;14.454;2024-01-10T07:40:50;94428.00;;;-3.10
41940;BMP180;23057;48.554;14.454;2024-01-10T07:43:21;94440.00;;;-3.00
41940;BMP180;23057;48.554;14.454;2024-01-10T07:45:52;94436.00;;;-3.00
41940;BMP180;23057;48.554;14.454;2024-01-10T07:48:23;94429.00;;;-3.00
41940;BMP180;23057;48.554;14.454;2024-01-10T07:50:55;94433.00;;;-3.00
41940;BMP180;23057;48.554;14.454;2024-01-10T07:53:26;94439.00;;;-2.90
41940;BMP180;23057;48.554;14.454;2024-01-10T07:55:57;94448.00;;;-2.90
41940;BMP180;23057;48.554;14.454;2024-01-10T07:58:28;94436.00;;;-2.90
41940;BMP180;23057;48.554;14.454;2024-01-10T08:00:58;94440.00;;;-2.90
41940;BMP180;23057;48.554;14.454;2024-01-10T08:03:29;94447.00;;;-2.80
41940;BMP180;23057;48.554;14.454;2024-01-10T08:06:01;94455.00;;;-2.70
41940;BMP180;23057;48.554;14.454;2024-01-10T08:08:33;94450.00;;;-2.70
41940;BMP180;23057;48.554;14.454;2024-01-10T08:11:03;94449.00;;;-2.70
41940;BMP180;23057;48.554;14.454;2024-01-10T08:13:34;94460.00;;;-2.70
41940;BMP180;23057;48.554;14.454;2024-01-10T08:16:06;94458.00;;;-2.70
41940;BMP180;23057;48.554;14.454;2024-01-10T08:18:39;94456.00;;;-2.70
41940;BMP180;23057;48.554;14.454;2024-01-10T08:21:09;94461.00;;;-2.70
41940;BMP180;23057;48.554;14.454;2024-01-10T08:23:41;94458.00;;;-2.70
41940;BMP180;23057;48.554;14.454;2024-01-10T08:26:11;94458.00;;;-2.70
41940;BMP180;23057;48.554;14.454;2024-01-10T08:28:43;94465.00;;;-2.70
41940;BMP180;23057;48.554;14.454;2024-01-10T08:31:16;94464.00;;;-2.60
41940;BMP180;23057;48.554;14.454;2024-01-10T08:33:47;94467.00;;;-2.60
41940;BMP180;23057;48.554;14.454;2024-01-10T08:36:18;94468.00;;;-2.50
41940;BMP180;23057;48.554;14.454;2024-01-10T08:38:49;94465.00;;;-2.50
41940;BMP180;23057;48.554;14.454;2024-01-10T08:41:21;94475.00;;;-2.40
41940;BMP180;23057;48.554;14.454;2024-01-10T08:43:51;94480.00;;;-2.30
41940;BMP180;23057;48.554;14.454;2024-01-10T08:46:23;94466.00;;;-2.20
41940;BMP180;23057;48.554;14.454;2024-01-10T08:48:55;94472.00;;;-2.10
41940;BMP180;23057;48.554;14.454;2024-01-10T08:51:25;94476.00;;;-1.90
41940;BMP180;23057;48.554;14.454;2024-01-10T08:53:57;94471.00;;;-1.80
41940;BMP180;23057;48.554;14.454;2024-01-10T08:56:28;94478.00;;;-1.70
41940;BMP180;23057;48.554;14.454;2024-01-10T08:58:59;94480.00;;;-1.60
41940;BMP180;23057;48.554;14.454;2024-01-10T09:01:30;94481.00;;;-1.40
41940;BMP180;23057;48.554;14.454;2024-01-10T09:04:01;94492.00;;;-1.30
41940;BMP180;23057;48.554;14.454;2024-01-10T09:06:32;94485.00;;;-1.20
41940;BMP180;23057;48.554;14.454;2024-01-10T09:09:04;94486.00;;;-1.20
41940;BMP180;23057;48.554;14.454;2024-01-10T09:11:35;94479.00;;;-1.10
41940;BMP180;23057;48.554;14.454;2024-01-10T09:14:06;94487.00;;;-1.10
41940;BMP180;23057;48.554;14.454;2024-01-10T09:16:37;94489.00;;;-1.10
41940;BMP180;23057;48.554;14.454;2024-01-10T09:19:09;94489.00;;;-1.10
41940;BMP180;23057;48.554;14.454;2024-01-10T09:21:40;94486.00;;;-1.10
41940;BMP180;23057;48.554;14.454;2024-01-10T09:24:11;94488.00;;;-1.00
41940;BMP180;23057;48.554;14.454;2024-01-10T09:26:45;94485.00;;;-0.90
41940;BMP180;23057;48.554;14.454;2024-01-10T09:29:15;94487.00;;;-0.90
41940;BMP180;23057;48.554;14.454;2024-01-10T09:31:46;94492.00;;;-0.80
41940;BMP180;23057;48.554;14.454;2024-01-10T09:34:17;94483.00;;;-0.70
41940;BMP180;23057;48.554;14.454;2024-01-10T09:36:48;94491.00;;;-0.60
41940;BMP180;23057;48.554;14.454;2024-01-10T09:39:19;94491.00;;;-0.60
41940;BMP180;23057;48.554;14.454;2024-01-10T09:41:50;94490.00;;;-0.50
41940;BMP180;23057;48.554;14.454;2024-01-10T09:44:21;94479.00;;;-0.40
41940;BMP180;23057;48.554;14.454;2024-01-10T09:46:54;94487.00;;;-0.40
41940;BMP180;23057;48.554;14.454;2024-01-10T09:49:25;94495.00;;;-0.30
41940;BMP180;23057;48.554;14.454;2024-01-10T09:52:03;94496.00;;;-0.20
41940;BMP180;23057;48.554;14.454;2024-01-10T09:54:40;94490.00;;;-0.20
41940;BMP180;23057;48.554;14.454;2024-01-10T09:57:11;94486.00;;;-0.10
41940;BMP180;23057;48.554;14.454;2024-01-10T09:59:42;94486.00;;;0.00
41940;BMP180;23057;48.554;14.454;2024-01-10T10:02:21;94484.00;;;0.10
41940;BMP180;23057;48.554;14.454;2024-01-10T10:05:11;94489.00;;;0.20
41940;BMP180;23057;48.554;14.454;2024-01-10T10:07:50;94488.00;;;0.20
41940;BMP180;23057;48.554;14.454;2024-01-10T10:10:22;94487.00;;;0.40
41940;BMP180;23057;48.554;14.454;2024-01-10T10:12:53;94485.00;;;0.50
41940;BMP180;23057;48.554;14.454;2024-01-10T10:15:25;94477.00;;;0.60
41940;BMP180;23057;48.554;14.454;2024-01-10T10:17:56;94476.00;;;0.60
41940;BMP180;23057;48.554;14.454;2024-01-10T10:20:30;94478.00;;;0.70
41940;BMP180;23057;48.554;14.454;2024-01-10T10:23:08;94479.00;;;0.80
41940;BMP180;23057;48.554;14.454;2024-01-10T10:25:48;94477.00;;;0.90
41940;BMP180;23057;48.554;14.454;2024-01-10T10:28:19;94467.00;;;1.00
41940;BMP180;23057;48.554;14.454;2024-01-10T10:30:52;94469.00;;;1.10
41940;BMP180;23057;48.554;14.454;2024-01-10T10:33:23;94468.00;;;1.00
41940;BMP180;23057;48.554;14.454;2024-01-10T10:35:55;94470.00;;;1.00
41940;BMP180;23057;48.554;14.454;2024-01-10T10:38:26;94465.00;;;1.00
41940;BMP180;23057;48.554;14.454;2024-01-10T10:40:59;94475.00;;;1.10
41940;BMP180;23057;48.554;14.454;2024-01-10T10:43:34;94466.00;;;1.20
41940;BMP180;23057;48.554;14.454;2024-01-10T10:46:09;94447.00;;;1.30
41940;BMP180;23057;48.554;14.454;2024-01-10T10:48:43;94461.00;;;1.50
41940;BMP180;23057;48.554;14.454;2024-01-10T10:51:27;94460.00;;;1.60
41940;BMP180;23057;48.554;14.454;2024-01-10T10:54:04;94457.00;;;1.70
41940;BMP180;23057;48.554;14.454;2024-01-10T10:56:38;94455.00;;;1.80
41940;BMP180;23057;48.554;14.454;2024-01-10T10:59:13;94460.00;;;2.00
41940;BMP180;23057;48.554;14.454;2024-01-10T11:01:47;94465.00;;;2.00
41940;BMP180;23057;48.554;14.454;2024-01-10T11:04:21;94457.00;;;2.00
41940;BMP180;23057;48.554;14.454;2024-01-10T11:06:52;94457.00;;;2.10
41940;BMP180;23057;48.554;14.454;2024-01-10T11:09:24;94460.00;;;2.20
41940;BMP180;23057;48.554;14.454;2024-01-10T11:12:21;94445.00;;;2.30
41940;BMP180;23057;48.554;14.454;2024-01-10T11:24:38;94454.00;;;2.90
41940;BMP180;23057;48.554;14.454;2024-01-10T11:27:14;94448.00;;;3.00
41940;BMP180;23057;48.554;14.454;2024-01-10T11:29:46;94446.00;;;3.10
41940;BMP180;23057;48.554;14.454;2024-01-10T11:32:23;94437.00;;;3.10
41940;BMP180;23057;48.554;14.454;2024-01-10T11:34:57;94421.00;;;3.20
41940;BMP180;23057;48.554;14.454;2024-01-10T11:37:42;94434.00;;;3.30
41940;BMP180;23057;48.554;14.454;2024-01-10T11:40:14;94433.00;;;3.40
41940;BMP180;23057;48.554;14.454;2024-01-10T11:42:46;94426.00;;;3.40
41940;BMP180;23057;48.554;14.454;2024-01-10T11:48:02;94437.00;;;3.60
41940;BMP180;23057;48.554;14.454;2024-01-10T11:50:34;94427.00;;;3.80
41940;BMP180;23057;48.554;14.454;2024-01-10T11:53:05;94425.00;;;3.90
41940;BMP180;23057;48.554;14.454;2024-01-10T11:55:50;94423.00;;;4.00
41940;BMP180;23057;48.554;14.454;2024-01-10T11:58:24;94433.00;;;4.00
41940;BMP180;23057;48.554;14.454;2024-01-10T12:00:57;94424.00;;;4.00
41940;BMP180;23057;48.554;14.454;2024-01-10T12:03:30;94424.00;;;4.00
41940;BMP180;23057;48.554;14.454;2024-01-10T12:06:02;94424.00;;;4.00
41940;BMP180;23057;48.554;14.454;2024-01-10T12:08:34;94421.00;;;4.10
41940;BMP180;23057;48.554;14.454;2024-01-10T12:11:05;94410.00;;;4.20
41940;BMP180;23057;48.554;14.454;2024-01-10T12:13:36;94408.00;;;4.30
41940;BMP180;23057;48.554;14.454;2024-01-10T12:16:07;94416.00;;;4.50
41940;BMP180;23057;48.554;14.454;2024-01-10T12:18:37;94410.00;;;4.50
41940;BMP180;23057;48.554;14.454;2024-01-10T12:21:09;94416.00;;;4.70
41940;BMP180;23057;48.554;14.454;2024-01-10T12:23:40;94415.00;;;4.80
41940;BMP180;23057;48.554;14.454;2024-01-10T12:26:12;94398.00;;;4.90
41940;BMP180;23057;48.554;14.454;2024-01-10T12:28:59;94411.00;;;5.00
41940;BMP180;23057;48.554;14.454;2024-01-10T12:31:30;94404.00;;;5.00
41940;BMP180;23057;48.554;14.454;2024-01-10T12:34:01;94394.00;;;5.10
41940;BMP180;23057;48.554;14.454;2024-01-10T12:36:33;94402.00;;;5.10
41940;BMP180;23057;48.554;14.454;2024-01-10T12:39:04;94399.00;;;5.10
41940;BMP180;23057;48.554;14.454;2024-01-10T12:41:37;94399.00;;;5.10
41940;BMP180;23057;48.554;14.454;2024-01-10T12:44:10;94398.00;;;5.00
41940;BMP180;23057;48.554;14.454;2024-01-10T12:46:51;94401.00;;;5.10
41940;BMP180;23057;48.554;14.454;2024-01-10T12:49:23;94396.00;;;5.00
41940;BMP180;23057;48.554;14.454;2024-01-10T12:51:54;94401.00;;;5.00
41940;BMP180;23057;48.554;14.454;2024-01-10T12:54:25;94400.00;;;5.00
41940;BMP180;23057;48.554;14.454;2024-01-10T12:56:55;94398.00;;;5.10
41940;BMP180;23057;48.554;14.454;2024-01-10T12:59:27;94400.00;;;5.20
41940;BMP180;23057;48.554;14.454;2024-01-10T13:02:00;94399.00;;;5.20
41940;BMP180;23057;48.554;14.454;2024-01-10T13:04:31;94403.00;;;5.20
41940;BMP180;23057;48.554;14.454;2024-01-10T13:07:02;94411.00;;;5.10
41940;BMP180;23057;48.554;14.454;2024-01-10T13:09:33;94406.00;;;5.20
41940;BMP180;23057;48.554;14.454;2024-01-10T13:12:04;94397.00;;;5.20
41940;BMP180;23057;48.554;14.454;2024-01-10T13:14:35;94407.00;;;5.20
41940;BMP180;23057;48.554;14.454;2024-01-10T13:17:06;94407.00;;;5.10
41940;BMP180;23057;48.554;14.454;2024-01-10T13:19:37;94411.00;;;5.10
41940;BMP180;23057;48.554;14.454;2024-01-10T13:22:08;94409.00;;;5.00
41940;BMP180;23057;48.554;14.454;2024-01-10T13:24:38;94409.00;;;5.00
41940;BMP180;23057;48.554;14.454;2024-01-10T13:27:09;94407.00;;;4.90
41940;BMP180;23057;48.554;14.454;2024-01-10T13:29:41;94411.00;;;5.20
41940;BMP180;23057;48.554;14.454;2024-01-10T13:32:11;94407.00;;;5.30
41940;BMP180;23057;48.554;14.454;2024-01-10T13:34:42;94418.00;;;5.20
41940;BMP180;23057;48.554;14.454;2024-01-10T13:37:14;94412.00;;;5.20
41940;BMP180;23057;48.554;14.454;2024-01-10T13:39:45;94411.00;;;5.10
41940;BMP180;23057;48.554;14.454;2024-01-10T13:42:16;94419.00;;;5.00
41940;BMP180;23057;48.554;14.454;2024-01-10T13:44:47;94412.00;;;5.00
41940;BMP180;23057;48.554;14.454;2024-01-10T13:47:19;94417.00;;;4.90
41940;BMP180;23057;48.554;14.454;2024-01-10T13:49:49;94425.00;;;5.00
41940;BMP180;23057;48.554;14.454;2024-01-10T13:52:20;94421.00;;;5.00
41940;BMP180;23057;48.554;14.454;2024-01-10T13:54:51;94422.00;;;5.10
41940;BMP180;23057;48.554;14.454;2024-01-10T13:57:22;94419.00;;;5.20
41940;BMP180;23057;48.554;14.454;2024-01-10T13:59:53;94428.00;;;5.20
41940;BMP180;23057;48.554;14.454;2024-01-10T14:02:26;94432.00;;;5.20
41940;BMP180;23057;48.554;14.454;2024-01-10T14:04:57;94418.00;;;5.10
41940;BMP180;23057;48.554;14.454;2024-01-10T14:07:28;94419.00;;;5.00
41940;BMP180;23057;48.554;14.454;2024-01-10T14:09:59;94426.00;;;4.90
41940;BMP180;23057;48.554;14.454;2024-01-10T14:12:29;94418.00;;;4.80
41940;BMP180;23057;48.554;14.454;2024-01-10T14:15:00;94424.00;;;4.70
41940;BMP180;23057;48.554;14.454;2024-01-10T14:17:31;94418.00;;;4.60
41940;BMP180;23057;48.554;14.454;2024-01-10T14:20:03;94424.00;;;4.50
41940;BMP180;23057;48.554;14.454;2024-01-10T14:22:36;94414.00;;;4.40
41940;BMP180;23057;48.554;14.454;2024-01-10T14:25:08;94417.00;;;4.30
41940;BMP180;23057;48.554;14.454;2024-01-10T14:27:40;94422.00;;;4.20
41940;BMP180;23057;48.554;14.454;2024-01-10T14:30:11;94432.00;;;4.10
41940;BMP180;23057;48.554;14.454;2024-01-10T14:32:42;94435.00;;;4.00
41940;BMP180;23057;48.554;14.454;2024-01-10T14:35:13;94420.00;;;3.90
41940;BMP180;23057;48.554;14.454;2024-01-10T14:37:44;94418.00;;;3.80